createdAt,value
2018-06-05T00:00:30.274Z,28.90
2018-06-05T00:01:30.273Z,31.60
2018-06-05T00:02:30.268Z,31.20
2018-06-05T00:03:30.267Z,29.20
2018-06-05T00:04:30.270Z,31.60
2018-06-05T00:05:30.271Z,29.50
2018-06-05T00:06:30.269Z,29.10
2018-06-05T00:07:30.267Z,30.90
2018-06-05T00:08:30.260Z,29.50
2018-06-05T00:09:30.260Z,28.60
2018-06-05T00:10:30.259Z,30.20
2018-06-05T00:11:30.257Z,31.50
2018-06-05T00:12:30.261Z,29.20
2018-06-05T00:13:30.259Z,29.70
2018-06-05T00:14:30.258Z,30.50
2018-06-05T00:15:30.257Z,28.50
2018-06-05T00:16:30.250Z,29.20
2018-06-05T00:17:30.249Z,27.70
2018-06-05T00:18:30.253Z,30.50
2018-06-05T00:19:30.252Z,29.10
2018-06-05T00:20:30.246Z,29.40
2018-06-05T00:21:30.244Z,28.40
2018-06-05T00:22:30.244Z,27.40
2018-06-05T00:23:30.248Z,30.70
2018-06-05T00:24:30.245Z,28.70
2018-06-05T00:25:30.246Z,29.70
2018-06-05T00:26:30.247Z,30.00
2018-06-05T00:27:30.246Z,31.10
2018-06-05T00:28:30.236Z,29.30
2018-06-05T00:29:30.235Z,30.40
2018-06-05T00:30:30.234Z,29.80
2018-06-05T00:31:30.233Z,29.90
2018-06-05T00:32:30.237Z,28.50
2018-06-05T00:33:30.235Z,30.70
2018-06-05T00:34:30.229Z,27.60
2018-06-05T00:35:30.228Z,29.00
2018-06-05T00:36:30.232Z,27.70
2018-06-05T00:37:30.233Z,29.20
2018-06-05T00:38:30.229Z,30.40
2018-06-05T00:39:30.228Z,29.20
2018-06-05T00:40:30.222Z,28.20
2018-06-05T00:41:30.221Z,27.90
2018-06-05T00:42:30.220Z,30.80
2018-06-05T00:43:30.219Z,29.80
2018-06-05T00:44:30.221Z,30.70
2018-06-05T00:45:30.220Z,28.50
2018-06-05T00:46:30.221Z,30.80
2018-06-05T00:47:30.219Z,29.50
2018-06-05T00:48:30.213Z,29.00
2018-06-05T00:49:30.212Z,31.30
2018-06-05T00:50:30.216Z,29.20
2018-06-05T00:51:30.216Z,29.70
2018-06-05T00:52:30.210Z,30.10
2018-06-05T00:53:30.207Z,31.00
2018-06-05T00:54:30.206Z,30.70
2018-06-05T00:55:30.205Z,30.50
2018-06-05T00:56:30.207Z,32.10
2018-06-05T00:57:30.213Z,30.80
2018-06-05T00:58:30.209Z,32.70
2018-06-05T00:59:30.205Z,29.10
2018-06-05T01:00:30.201Z,32.60
2018-06-05T01:01:30.198Z,30.40
2018-06-05T01:02:30.200Z,31.20
2018-06-05T01:03:30.196Z,32.00
2018-06-05T01:04:30.199Z,30.90
2018-06-05T01:05:30.198Z,31.50
2018-06-05T01:06:30.192Z,30.90
2018-06-05T01:07:30.192Z,33.10
2018-06-05T01:08:30.195Z,32.80
2018-06-05T01:09:30.193Z,29.30
2018-06-05T01:10:30.192Z,32.90
2018-06-05T01:11:30.192Z,34.00
2018-06-05T01:12:30.185Z,33.70
2018-06-05T01:13:30.184Z,32.20
2018-06-05T01:14:30.184Z,33.10
2018-06-05T01:15:30.183Z,34.50
2018-06-05T01:16:30.186Z,33.40
2018-06-05T01:17:30.185Z,35.10
2018-06-05T01:18:30.185Z,34.90
2018-06-05T01:19:30.185Z,33.20
2018-06-05T01:20:30.177Z,33.10
2018-06-05T01:21:30.176Z,33.50
2018-06-05T01:22:30.180Z,32.50
2018-06-05T01:23:30.182Z,35.30
2018-06-05T01:24:30.172Z,34.70
2018-06-05T01:25:30.173Z,35.40
2018-06-05T01:26:30.172Z,33.90
2018-06-05T01:27:30.170Z,35.30
2018-06-05T01:28:30.172Z,37.00
2018-06-05T01:29:30.172Z,34.40
2018-06-05T01:30:30.172Z,35.40
2018-06-05T01:31:30.170Z,37.40
2018-06-05T01:32:30.165Z,35.40
2018-06-05T01:33:30.168Z,35.80
2018-06-05T01:34:30.163Z,34.90
2018-06-05T01:35:30.162Z,36.20
2018-06-05T01:36:30.165Z,37.20
2018-06-05T01:37:30.164Z,36.20
2018-06-05T01:38:30.212Z,36.20
2018-06-05T01:39:30.159Z,36.70
2018-06-05T01:40:30.165Z,38.30
2018-06-05T01:41:30.160Z,38.50
2018-06-05T01:42:30.159Z,38.90
2018-06-05T01:43:30.158Z,36.90
2018-06-05T01:44:30.153Z,37.90
2018-06-05T01:45:30.151Z,37.70
2018-06-05T01:46:30.150Z,35.80
2018-06-05T01:47:30.149Z,37.30
2018-06-05T01:48:30.152Z,39.50
2018-06-05T01:49:30.151Z,37.10
2018-06-05T01:50:30.155Z,38.30
2018-06-05T01:51:30.151Z,39.10
2018-06-05T01:52:30.145Z,37.40
2018-06-05T01:53:30.143Z,38.50
2018-06-05T01:54:30.148Z,38.20
2018-06-05T01:55:30.155Z,38.40
2018-06-05T01:56:30.140Z,39.20
2018-06-05T01:57:30.145Z,35.30
2018-06-05T01:58:30.138Z,37.00
2018-06-05T01:59:30.137Z,36.90
2018-06-05T02:00:30.139Z,37.60
2018-06-05T02:01:30.139Z,37.10
2018-06-05T02:02:30.141Z,36.90
2018-06-05T02:03:30.137Z,37.90
2018-06-05T02:04:30.131Z,37.80
2018-06-05T02:05:30.130Z,38.50
2018-06-05T02:06:30.129Z,36.20
2018-06-05T02:07:30.130Z,35.40
2018-06-05T02:08:30.133Z,34.90
2018-06-05T02:09:30.132Z,37.70
2018-06-05T02:10:30.125Z,35.70
2018-06-05T02:11:30.125Z,34.70
2018-06-05T02:12:30.129Z,36.00
2018-06-05T02:13:30.129Z,33.70
2018-06-05T02:14:30.126Z,36.40
2018-06-05T02:15:30.125Z,34.40
2018-06-05T02:16:30.118Z,36.10
2018-06-05T02:17:30.120Z,34.20
2018-06-05T02:18:30.118Z,33.10
2018-06-05T02:19:30.117Z,34.50
2018-06-05T02:20:30.121Z,33.60
2018-06-05T02:21:30.119Z,34.70
2018-06-05T02:22:30.118Z,34.00
2018-06-05T02:23:30.117Z,33.40
2018-06-05T02:24:30.115Z,35.00
2018-06-05T02:25:30.110Z,33.30
2018-06-05T02:26:30.115Z,34.70
2018-06-05T02:27:30.115Z,33.70
2018-06-05T02:28:30.111Z,34.80
2018-06-05T02:29:30.106Z,34.10
2018-06-05T02:30:30.104Z,31.50
2018-06-05T02:31:30.103Z,34.40
2018-06-05T02:32:30.108Z,34.20
2018-06-05T02:33:30.105Z,33.80
2018-06-05T02:34:30.108Z,35.20
2018-06-05T02:35:30.112Z,34.90
2018-06-05T02:36:30.098Z,33.80
2018-06-05T02:37:30.097Z,33.40
2018-06-05T02:38:30.097Z,37.30
2018-06-05T02:39:30.096Z,34.30
2018-06-05T02:40:30.103Z,36.10
2018-06-05T02:41:30.097Z,39.40
2018-06-05T02:42:30.093Z,39.50
2018-06-05T02:43:30.094Z,39.20
2018-06-05T02:44:30.094Z,40.70
2018-06-05T02:45:30.093Z,42.00
2018-06-05T02:46:30.094Z,38.50
2018-06-05T02:47:30.095Z,42.10
2018-06-05T02:48:30.085Z,41.50
2018-06-05T02:49:30.085Z,41.20
2018-06-05T02:50:30.085Z,39.60
2018-06-05T02:51:30.084Z,39.10
2018-06-05T02:52:30.087Z,37.80
2018-06-05T02:53:30.086Z,42.20
2018-06-05T02:54:30.084Z,38.40
2018-06-05T02:55:30.082Z,39.40
2018-06-05T02:56:30.077Z,40.00
2018-06-05T02:57:30.076Z,37.70
2018-06-05T02:58:30.081Z,38.90
2018-06-05T02:59:30.079Z,37.70
2018-06-05T03:00:30.073Z,37.20
2018-06-05T03:01:30.072Z,36.40
2018-06-05T03:02:30.072Z,38.00
2018-06-05T03:03:30.070Z,35.40
2018-06-05T03:04:30.074Z,36.50
2018-06-05T03:05:30.076Z,35.80
2018-06-05T03:06:30.073Z,38.50
2018-06-05T03:07:30.070Z,35.60
2018-06-05T03:08:30.064Z,35.80
2018-06-05T03:09:30.064Z,38.50
2018-06-05T03:10:30.062Z,36.80
2018-06-05T03:11:30.061Z,37.30
2018-06-05T03:12:30.064Z,39.00
2018-06-05T03:13:30.063Z,37.70
2018-06-05T03:14:30.058Z,36.40
2018-06-05T03:15:30.057Z,39.80
2018-06-05T03:16:30.061Z,38.50
2018-06-05T03:17:30.062Z,37.90
2018-06-05T03:18:30.059Z,39.90
2018-06-05T03:19:30.059Z,39.80
2018-06-05T03:20:30.051Z,40.40
2018-06-05T03:21:30.053Z,37.80
2018-06-05T03:22:30.050Z,37.20
2018-06-05T03:23:30.049Z,39.50
2018-06-05T03:24:30.051Z,39.40
2018-06-05T03:25:30.051Z,39.80
2018-06-05T03:26:30.053Z,39.80
2018-06-05T03:27:30.048Z,40.50
2018-06-05T03:28:30.043Z,38.10
2018-06-05T03:29:30.042Z,39.50
2018-06-05T03:30:30.046Z,40.80
2018-06-05T03:31:30.045Z,42.50
2018-06-05T03:32:30.038Z,40.70
2018-06-05T03:33:30.037Z,40.70
2018-06-05T03:34:30.037Z,38.50
2018-06-05T03:35:30.036Z,42.00
2018-06-05T03:36:30.040Z,40.30
2018-06-05T03:37:30.039Z,40.80
2018-06-05T03:38:30.036Z,39.80
2018-06-05T03:39:30.036Z,38.60
2018-06-05T03:40:30.030Z,41.10
2018-06-05T03:41:30.028Z,42.40
2018-06-05T03:42:30.029Z,42.00
2018-06-05T03:43:30.027Z,41.60
2018-06-05T03:44:30.030Z,40.60
2018-06-05T03:45:30.030Z,40.80
2018-06-05T03:46:30.026Z,41.50
2018-06-05T03:47:30.024Z,40.50
2018-06-05T03:48:30.027Z,40.70
2018-06-05T03:49:30.026Z,40.80
2018-06-05T03:50:30.024Z,41.60
2018-06-05T03:51:30.023Z,38.70
2018-06-05T03:52:30.017Z,39.00
2018-06-05T03:53:30.016Z,38.40
2018-06-05T03:54:30.015Z,38.80
2018-06-05T03:55:30.017Z,40.20
2018-06-05T03:56:30.033Z,42.30
2018-06-05T03:57:30.017Z,41.10
2018-06-05T03:58:30.016Z,41.00
2018-06-05T03:59:30.015Z,41.60
2018-06-05T04:00:30.008Z,36.90
2018-06-05T04:01:30.007Z,39.90
2018-06-05T04:02:30.012Z,40.70
2018-06-05T04:03:30.012Z,39.80
2018-06-05T04:04:30.005Z,39.00
2018-06-05T04:05:30.003Z,39.00
2018-06-05T04:06:30.002Z,40.80
2018-06-05T04:07:30.001Z,39.80
2018-06-05T04:08:30.003Z,41.40
2018-06-05T04:09:30.003Z,41.00
2018-06-05T04:10:30.002Z,38.40
2018-06-05T04:11:30.002Z,40.20
2018-06-05T04:12:29.996Z,38.90
2018-06-05T04:13:29.994Z,39.90
2018-06-05T04:14:29.995Z,39.00
2018-06-05T04:15:29.995Z,40.00
2018-06-05T04:16:30.000Z,41.10
2018-06-05T04:17:29.995Z,39.60
2018-06-05T04:18:29.990Z,41.10
2018-06-05T04:19:29.989Z,38.70
2018-06-05T04:20:29.993Z,36.60
2018-06-05T04:21:29.992Z,38.60
2018-06-05T04:22:29.990Z,40.20
2018-06-05T04:23:29.989Z,39.20
2018-06-05T04:24:29.983Z,38.00
2018-06-05T04:25:29.982Z,41.60
2018-06-05T04:26:29.982Z,39.40
2018-06-05T04:27:30.010Z,39.80
2018-06-05T04:28:29.990Z,38.80
2018-06-05T04:29:29.982Z,40.30
2018-06-05T04:30:29.983Z,40.80
2018-06-05T04:31:29.982Z,37.50
2018-06-05T04:32:29.977Z,39.40
2018-06-05T04:33:29.977Z,37.20
2018-06-05T04:34:29.980Z,38.70
2018-06-05T04:35:29.979Z,40.40
2018-06-05T04:36:29.972Z,40.30
2018-06-05T04:37:29.975Z,37.80
2018-06-05T04:38:29.971Z,38.70
2018-06-05T04:39:29.973Z,38.90
2018-06-05T04:40:29.973Z,38.40
2018-06-05T04:41:29.972Z,38.10
2018-06-05T04:42:29.973Z,39.90
2018-06-05T04:43:29.972Z,37.80
2018-06-05T04:44:29.965Z,38.30
2018-06-05T04:45:29.965Z,37.10
2018-06-05T04:46:29.964Z,37.50
2018-06-05T04:47:29.964Z,38.60
2018-06-05T04:48:29.966Z,37.60
2018-06-05T04:49:29.966Z,38.10
2018-06-05T04:50:29.961Z,40.50
2018-06-05T04:51:29.960Z,38.60
2018-06-05T04:52:29.965Z,38.20
2018-06-05T04:53:29.967Z,37.60
2018-06-05T04:54:29.963Z,39.10
2018-06-05T04:55:29.963Z,38.60
2018-06-05T04:56:29.957Z,40.70
2018-06-05T04:57:29.957Z,39.00
2018-06-05T04:58:29.958Z,39.10
2018-06-05T04:59:29.955Z,38.70
2018-06-05T05:00:29.959Z,41.40
2018-06-05T05:01:29.959Z,41.30
2018-06-05T05:02:29.957Z,40.30
2018-06-05T05:03:29.957Z,40.00
2018-06-05T05:04:29.950Z,41.00
2018-06-05T05:05:29.950Z,39.10
2018-06-05T05:06:29.954Z,37.90
2018-06-05T05:07:29.953Z,40.00
2018-06-05T05:08:29.948Z,39.30
2018-06-05T05:09:29.948Z,39.40
2018-06-05T05:10:29.948Z,39.90
2018-06-05T05:11:29.949Z,39.30
2018-06-05T05:12:29.952Z,38.30
2018-06-05T05:13:29.950Z,39.20
2018-06-05T05:14:29.960Z,39.80
2018-06-05T05:15:29.951Z,38.40
2018-06-05T05:16:29.946Z,38.50
2018-06-05T05:17:29.944Z,39.40
2018-06-05T05:18:29.943Z,39.70
2018-06-05T05:19:29.942Z,40.40
2018-06-05T05:20:29.946Z,39.90
2018-06-05T05:21:29.945Z,42.00
2018-06-05T05:22:29.941Z,39.00
2018-06-05T05:23:29.940Z,42.50
2018-06-05T05:24:29.945Z,43.20
2018-06-05T05:25:29.944Z,40.10
2018-06-05T05:26:29.945Z,42.50
2018-06-05T05:27:29.944Z,39.70
2018-06-05T05:28:29.938Z,40.70
2018-06-05T05:29:29.937Z,39.10
2018-06-05T05:30:29.937Z,41.30
2018-06-05T05:31:29.938Z,40.60
2018-06-05T05:32:29.941Z,41.70
2018-06-05T05:33:29.940Z,42.60
2018-06-05T05:34:29.939Z,41.10
2018-06-05T05:35:29.939Z,41.20
2018-06-05T05:36:29.934Z,40.50
2018-06-05T05:37:29.933Z,42.30
2018-06-05T05:38:29.939Z,41.70
2018-06-05T05:39:29.937Z,42.10
2018-06-05T05:40:29.933Z,39.70
2018-06-05T05:41:29.933Z,41.70
2018-06-05T05:42:29.932Z,42.20
2018-06-05T05:43:29.932Z,42.70
2018-06-05T05:44:29.939Z,42.90
2018-06-05T05:45:29.937Z,41.20
2018-06-05T05:46:29.931Z,40.80
2018-06-05T05:47:29.931Z,44.30
2018-06-05T05:48:29.934Z,41.40
2018-06-05T05:49:29.934Z,42.20
2018-06-05T05:50:29.935Z,42.30
2018-06-05T05:51:29.935Z,43.10
2018-06-05T05:52:29.933Z,42.50
2018-06-05T05:53:29.931Z,42.10
2018-06-05T05:54:29.934Z,44.00
2018-06-05T05:55:29.936Z,42.20
2018-06-05T05:56:29.929Z,42.80
2018-06-05T05:57:29.930Z,41.90
2018-06-05T05:58:29.929Z,41.30
2018-06-05T05:59:29.929Z,40.80
2018-06-05T06:00:29.932Z,43.00
2018-06-05T06:01:29.933Z,40.80
2018-06-05T06:02:29.934Z,41.90
2018-06-05T06:03:29.934Z,42.40
2018-06-05T06:04:29.928Z,42.10
2018-06-05T06:05:29.928Z,42.30
2018-06-05T06:06:29.929Z,41.60
2018-06-05T06:07:29.929Z,40.70
2018-06-05T06:08:29.934Z,40.60
2018-06-05T06:09:29.934Z,40.70
2018-06-05T06:10:29.929Z,41.30
2018-06-05T06:11:29.929Z,40.80
2018-06-05T06:12:29.934Z,40.60
2018-06-05T06:13:29.934Z,40.00
2018-06-05T06:14:29.933Z,39.90
2018-06-05T06:15:29.933Z,40.50
2018-06-05T06:16:29.928Z,40.10
2018-06-05T06:17:29.929Z,39.90
2018-06-05T06:18:29.930Z,39.00
2018-06-05T06:19:29.929Z,37.80
2018-06-05T06:20:29.933Z,39.70
2018-06-05T06:21:29.933Z,37.80
2018-06-05T06:22:29.936Z,37.40
2018-06-05T06:23:29.934Z,38.70
2018-06-05T06:24:29.928Z,38.10
2018-06-05T06:25:29.929Z,36.60
2018-06-05T06:26:29.936Z,38.80
2018-06-05T06:27:29.936Z,37.80
2018-06-05T06:28:29.929Z,36.90
2018-06-05T06:29:29.930Z,38.00
2018-06-05T06:30:29.930Z,37.80
2018-06-05T06:31:29.930Z,37.50
2018-06-05T06:32:29.934Z,36.30
2018-06-05T06:33:29.934Z,38.80
2018-06-05T06:34:29.936Z,37.90
2018-06-05T06:35:29.935Z,37.50
2018-06-05T06:36:29.930Z,37.90
2018-06-05T06:37:29.931Z,38.20
2018-06-05T06:38:29.935Z,37.50
2018-06-05T06:39:29.932Z,36.60
2018-06-05T06:40:29.938Z,37.90
2018-06-05T06:41:29.937Z,37.90
2018-06-05T06:42:29.932Z,39.10
2018-06-05T06:43:29.932Z,37.90
2018-06-05T06:44:29.937Z,37.90
2018-06-05T06:45:29.937Z,38.60
2018-06-05T06:46:29.936Z,39.80
2018-06-05T06:47:29.937Z,37.60
2018-06-05T06:48:29.938Z,39.20
2018-06-05T06:49:29.934Z,38.40
2018-06-05T06:50:29.932Z,38.10
2018-06-05T06:51:29.935Z,38.30
2018-06-05T06:52:29.938Z,38.20
2018-06-05T06:53:29.938Z,39.70
2018-06-05T06:54:29.975Z,40.10
2018-06-05T06:55:29.938Z,39.70
2018-06-05T06:56:29.933Z,42.50
2018-06-05T06:57:29.933Z,39.50
2018-06-05T06:58:29.938Z,42.10
2018-06-05T06:59:29.938Z,41.90
2018-06-05T07:00:29.933Z,40.50
2018-06-05T07:01:29.933Z,39.70
2018-06-05T07:02:29.933Z,41.10
2018-06-05T07:03:29.981Z,39.70
2018-06-05T07:04:29.940Z,40.90
2018-06-05T07:05:29.938Z,40.20
2018-06-05T07:06:29.939Z,39.80
2018-06-05T07:07:29.943Z,43.00
2018-06-05T07:08:29.934Z,42.50
2018-06-05T07:09:29.935Z,43.40
2018-06-05T07:10:29.934Z,41.50
2018-06-05T07:11:29.934Z,41.40
2018-06-05T07:12:29.939Z,43.70
2018-06-05T07:13:29.938Z,45.00
2018-06-05T07:14:29.934Z,45.50
2018-06-05T07:15:29.935Z,45.10
2018-06-05T07:16:29.937Z,43.20
2018-06-05T07:17:29.937Z,44.20
2018-06-05T07:18:29.940Z,42.80
2018-06-05T07:19:29.940Z,44.80
2018-06-05T07:20:29.933Z,44.30
2018-06-05T07:21:29.933Z,45.70
2018-06-05T07:22:29.934Z,46.40
2018-06-05T07:23:29.934Z,44.50
2018-06-05T07:24:29.939Z,46.10
2018-06-05T07:25:29.938Z,47.20
2018-06-05T07:26:29.941Z,46.50
2018-06-05T07:27:29.938Z,45.80
2018-06-05T07:28:29.933Z,47.10
2018-06-05T07:29:29.933Z,47.00
2018-06-05T07:30:30.015Z,45.30
2018-06-05T07:31:29.938Z,44.60
2018-06-05T07:32:29.937Z,45.20
2018-06-05T07:33:29.933Z,45.90
2018-06-05T07:34:29.936Z,44.70
2018-06-05T07:35:29.934Z,44.10
2018-06-05T07:36:29.939Z,46.00
2018-06-05T07:37:29.939Z,42.30
2018-06-05T07:38:29.938Z,44.90
2018-06-05T07:39:29.938Z,44.90
2018-06-05T07:40:29.932Z,44.60
2018-06-05T07:41:29.933Z,42.30
2018-06-05T07:42:29.933Z,42.30
2018-06-05T07:43:29.934Z,43.80
2018-06-05T07:44:29.948Z,43.10
2018-06-05T07:45:29.937Z,44.20
2018-06-05T07:46:29.933Z,43.30
2018-06-05T07:47:29.933Z,41.60
2018-06-05T07:48:29.938Z,41.60
2018-06-05T07:49:29.939Z,38.30
2018-06-05T07:50:29.938Z,42.30
2018-06-05T07:51:29.939Z,40.10
2018-06-05T07:52:29.933Z,42.40
2018-06-05T07:53:29.933Z,41.80
2018-06-05T07:54:29.933Z,42.00
2018-06-05T07:55:29.934Z,42.50
2018-06-05T07:56:29.938Z,40.20
2018-06-05T07:57:29.943Z,42.40
2018-06-05T07:58:29.940Z,40.40
2018-06-05T07:59:29.939Z,40.30
2018-06-05T08:00:29.935Z,42.80
2018-06-05T08:01:29.934Z,42.90
2018-06-05T08:02:29.940Z,41.50
2018-06-05T08:03:29.942Z,41.40
2018-06-05T08:04:29.934Z,42.20
2018-06-05T08:05:29.935Z,40.20
2018-06-05T08:06:29.935Z,41.40
2018-06-05T08:07:29.936Z,40.90
2018-06-05T08:08:29.940Z,39.50
2018-06-05T08:09:29.940Z,40.40
2018-06-05T08:10:29.940Z,39.60
2018-06-05T08:11:29.942Z,37.70
2018-06-05T08:12:29.937Z,38.90
2018-06-05T08:13:29.936Z,39.90
2018-06-05T08:14:29.937Z,38.70
2018-06-05T08:15:29.941Z,40.00
2018-06-05T08:16:29.945Z,39.00
2018-06-05T08:17:29.943Z,40.50
2018-06-05T08:18:30.003Z,41.10
2018-06-05T08:19:29.942Z,41.80
2018-06-05T08:20:29.945Z,39.40
2018-06-05T08:21:29.944Z,40.80
2018-06-05T08:22:29.945Z,40.40
2018-06-05T08:23:29.945Z,39.50
2018-06-05T08:24:29.948Z,39.10
2018-06-05T08:25:29.941Z,37.70
2018-06-05T08:26:29.943Z,39.60
2018-06-05T08:27:29.944Z,39.40
2018-06-05T08:28:29.947Z,40.10
2018-06-05T08:29:29.948Z,41.20
2018-06-05T08:30:29.950Z,41.70
2018-06-05T08:31:29.951Z,42.20
2018-06-05T08:32:29.946Z,41.40
2018-06-05T08:33:29.947Z,40.00
2018-06-05T08:34:29.952Z,40.90
2018-06-05T08:35:29.954Z,40.30
2018-06-05T08:36:29.947Z,40.00
2018-06-05T08:37:29.948Z,38.00
2018-06-05T08:38:29.949Z,41.20
2018-06-05T08:39:29.949Z,40.20
2018-06-05T08:40:29.953Z,41.00
2018-06-05T08:41:29.954Z,40.80
2018-06-05T08:42:29.955Z,42.10
2018-06-05T08:43:29.955Z,41.70
2018-06-05T08:44:29.951Z,41.60
2018-06-05T08:45:29.954Z,41.90
2018-06-05T08:46:29.952Z,42.90
2018-06-05T08:47:29.954Z,40.80
2018-06-05T08:48:29.958Z,43.10
2018-06-05T08:49:29.959Z,42.30
2018-06-05T08:50:29.957Z,45.30
2018-06-05T08:51:29.956Z,46.10
2018-06-05T08:52:29.961Z,45.60
2018-06-05T08:53:29.961Z,47.30
2018-06-05T08:54:29.963Z,46.80
2018-06-05T08:55:29.962Z,44.70
2018-06-05T08:56:29.959Z,47.20
2018-06-05T08:57:29.959Z,45.50
2018-06-05T08:58:29.960Z,46.90
2018-06-05T08:59:29.961Z,47.00
2018-06-05T09:00:29.967Z,44.90
2018-06-05T09:01:29.967Z,43.50
2018-06-05T09:02:29.968Z,45.40
2018-06-05T09:03:29.970Z,46.00
2018-06-05T09:04:29.965Z,48.40
2018-06-05T09:05:29.975Z,47.60
2018-06-05T09:06:29.972Z,46.50
2018-06-05T09:07:29.973Z,46.30
2018-06-05T09:08:29.969Z,45.70
2018-06-05T09:09:29.971Z,46.70
2018-06-05T09:10:29.975Z,48.50
2018-06-05T09:11:29.981Z,46.50
2018-06-05T09:12:29.981Z,47.90
2018-06-05T09:13:29.981Z,47.00
2018-06-05T09:14:29.982Z,47.30
2018-06-05T09:15:29.984Z,45.70
2018-06-05T09:16:29.981Z,48.20
2018-06-05T09:17:29.980Z,46.70
2018-06-05T09:18:29.981Z,47.00
2018-06-05T09:19:29.982Z,43.60
2018-06-05T09:20:30.014Z,45.70
2018-06-05T09:21:29.988Z,46.70
2018-06-05T09:22:29.986Z,47.30
2018-06-05T09:23:29.987Z,46.90
2018-06-05T09:24:29.993Z,48.40
2018-06-05T09:25:29.996Z,47.90
2018-06-05T09:26:29.998Z,47.20
2018-06-05T09:27:29.997Z,48.40
2018-06-05T09:28:29.993Z,50.90
2018-06-05T09:29:29.993Z,48.40
2018-06-05T09:30:29.996Z,49.60
2018-06-05T09:31:29.997Z,49.80
2018-06-05T09:32:30.001Z,48.80
2018-06-05T09:33:30.004Z,48.30
2018-06-05T09:34:30.053Z,49.90
2018-06-05T09:35:30.007Z,49.00
2018-06-05T09:36:30.001Z,49.00
2018-06-05T09:37:30.006Z,48.00
2018-06-05T09:38:30.008Z,45.70
2018-06-05T09:39:30.081Z,48.20
2018-06-05T09:40:30.006Z,47.50
2018-06-05T09:41:30.007Z,48.80
2018-06-05T09:42:30.008Z,47.90
2018-06-05T09:43:30.009Z,48.50
2018-06-05T09:44:30.015Z,47.30
2018-06-05T09:45:30.017Z,47.70
2018-06-05T09:46:30.018Z,48.00
2018-06-05T09:47:30.019Z,47.40
2018-06-05T09:48:30.019Z,47.90
2018-06-05T09:49:30.020Z,50.10
2018-06-05T09:50:30.017Z,47.10
2018-06-05T09:51:30.018Z,47.50
2018-06-05T09:52:30.074Z,47.80
2018-06-05T09:53:30.024Z,46.20
2018-06-05T09:54:30.020Z,46.70
2018-06-05T09:55:30.022Z,48.50
2018-06-05T09:56:30.027Z,48.30
2018-06-05T09:57:30.028Z,47.80
2018-06-05T09:58:30.207Z,48.20
2018-06-05T09:59:30.031Z,51.00
2018-06-05T10:00:30.026Z,47.00
2018-06-05T10:01:30.027Z,47.00
2018-06-05T10:02:30.029Z,48.90
2018-06-05T10:03:30.030Z,48.00
2018-06-05T10:04:30.036Z,47.90
2018-06-05T10:05:30.037Z,47.70
2018-06-05T10:06:30.037Z,49.00
2018-06-05T10:07:30.038Z,48.30
2018-06-05T10:08:30.036Z,47.90
2018-06-05T10:09:30.035Z,47.10
2018-06-05T10:10:30.041Z,47.50
2018-06-05T10:11:30.043Z,47.20
2018-06-05T10:12:30.060Z,46.80
2018-06-05T10:13:30.040Z,47.20
2018-06-05T10:14:30.041Z,45.10
2018-06-05T10:15:30.043Z,45.70
2018-06-05T10:16:30.048Z,48.10
2018-06-05T10:17:30.050Z,47.20
2018-06-05T10:18:30.053Z,48.00
2018-06-05T10:19:30.053Z,45.70
2018-06-05T10:20:30.048Z,45.40
2018-06-05T10:21:30.050Z,43.80
2018-06-05T10:22:30.050Z,43.50
2018-06-05T10:23:30.053Z,43.30
2018-06-05T10:24:30.057Z,43.70
2018-06-05T10:25:30.058Z,44.60
2018-06-05T10:26:30.057Z,44.90
2018-06-05T10:27:30.057Z,47.00
2018-06-05T10:28:30.062Z,46.80
2018-06-05T10:29:30.063Z,44.40
2018-06-05T10:30:30.112Z,47.30
2018-06-05T10:31:30.066Z,45.20
2018-06-05T10:32:30.063Z,45.30
2018-06-05T10:33:30.065Z,45.20
2018-06-05T10:34:30.066Z,45.90
2018-06-05T10:35:30.068Z,45.90
2018-06-05T10:36:30.073Z,45.70
2018-06-05T10:37:30.076Z,47.00
2018-06-05T10:38:30.077Z,46.90
2018-06-05T10:39:30.079Z,46.30
2018-06-05T10:40:30.074Z,46.10
2018-06-05T10:41:30.076Z,46.50
2018-06-05T10:42:30.087Z,46.00
2018-06-05T10:43:30.088Z,46.60
2018-06-05T10:44:30.080Z,45.90
2018-06-05T10:45:30.081Z,46.60
2018-06-05T10:46:30.088Z,46.10
2018-06-05T10:47:30.087Z,47.40
2018-06-05T10:48:30.092Z,46.00
2018-06-05T10:49:30.094Z,45.20
2018-06-05T10:50:30.095Z,44.90
2018-06-05T10:51:30.097Z,45.40
2018-06-05T10:52:30.100Z,45.80
2018-06-05T10:53:30.096Z,46.30
2018-06-05T10:54:30.098Z,46.10
2018-06-05T10:55:30.101Z,45.20
2018-06-05T10:56:30.105Z,45.00
2018-06-05T10:57:30.108Z,47.00
2018-06-05T10:58:30.106Z,46.10
2018-06-05T10:59:30.108Z,46.90
2018-06-05T11:00:30.181Z,44.10
2018-06-05T11:01:30.141Z,45.40
2018-06-05T11:02:30.121Z,44.00
2018-06-05T11:03:30.123Z,45.20
2018-06-05T11:04:30.119Z,44.50
2018-06-05T11:05:30.122Z,44.90
2018-06-05T11:06:30.127Z,44.20
2018-06-05T11:07:30.126Z,44.70
2018-06-05T11:08:30.133Z,45.50
2018-06-05T11:09:30.134Z,46.20
2018-06-05T11:10:30.138Z,44.90
2018-06-05T11:11:30.141Z,45.00
2018-06-05T11:12:30.137Z,45.00
2018-06-05T11:13:30.140Z,46.40
2018-06-05T11:14:30.147Z,45.50
2018-06-05T11:15:30.149Z,46.70
2018-06-05T11:16:30.147Z,44.90
2018-06-05T11:17:30.149Z,45.80
2018-06-05T11:18:30.152Z,45.80
2018-06-05T11:19:30.155Z,44.40
2018-06-05T11:20:30.160Z,44.80
2018-06-05T11:21:30.162Z,45.40
2018-06-05T11:22:30.166Z,42.10
2018-06-05T11:23:30.171Z,43.10
2018-06-05T11:24:30.167Z,42.00
2018-06-05T11:25:30.169Z,40.60
2018-06-05T11:26:30.174Z,40.00
2018-06-05T11:27:30.181Z,41.10
2018-06-05T11:28:30.182Z,40.70
2018-06-05T11:29:30.184Z,39.80
2018-06-05T11:30:30.186Z,43.30
2018-06-05T11:31:30.186Z,41.60
2018-06-05T11:32:30.192Z,40.90
2018-06-05T11:33:30.195Z,41.10
2018-06-05T11:34:30.197Z,41.40
2018-06-05T11:35:30.201Z,41.20
2018-06-05T11:36:30.200Z,41.10
2018-06-05T11:37:30.201Z,41.20
2018-06-05T11:38:30.204Z,41.30
2018-06-05T11:39:30.207Z,40.80
2018-06-05T11:40:30.215Z,41.10
2018-06-05T11:41:30.222Z,40.50
2018-06-05T11:42:30.221Z,38.50
2018-06-05T11:43:30.224Z,38.00
2018-06-05T11:44:30.221Z,38.90
2018-06-05T11:45:30.224Z,38.30
2018-06-05T11:46:30.233Z,38.70
2018-06-05T11:47:30.238Z,38.00
2018-06-05T11:48:30.233Z,36.10
2018-06-05T11:49:30.236Z,37.20
2018-06-05T11:50:30.239Z,39.50
2018-06-05T11:51:30.243Z,39.00
2018-06-05T11:52:30.250Z,38.00
2018-06-05T11:53:30.252Z,36.60
2018-06-05T11:54:30.256Z,37.70
2018-06-05T11:55:30.259Z,36.10
2018-06-05T11:56:30.258Z,36.50
2018-06-05T11:57:30.261Z,37.20
2018-06-05T11:58:30.266Z,36.40
2018-06-05T11:59:30.269Z,36.80
2018-06-05T12:00:30.275Z,37.20
2018-06-05T12:01:30.279Z,37.60
2018-06-05T12:02:30.280Z,37.00
2018-06-05T12:03:30.296Z,37.20
2018-06-05T12:04:30.290Z,37.30
2018-06-05T12:05:30.296Z,35.20
2018-06-05T12:06:30.298Z,35.30
2018-06-05T12:07:30.299Z,37.80
2018-06-05T12:08:30.297Z,40.50
2018-06-05T12:09:30.301Z,39.90
2018-06-05T12:10:30.305Z,36.70
2018-06-05T12:11:30.308Z,36.60
2018-06-05T12:12:30.317Z,36.20
2018-06-05T12:13:30.319Z,37.10
2018-06-05T12:14:30.322Z,38.40
2018-06-05T12:15:30.326Z,36.40
2018-06-05T12:16:30.325Z,39.10
2018-06-05T12:17:30.328Z,37.40
2018-06-05T12:18:30.335Z,39.60
2018-06-05T12:19:30.340Z,38.10
2018-06-05T12:20:30.338Z,36.40
2018-06-05T12:21:30.342Z,38.30
2018-06-05T12:22:30.346Z,36.90
2018-06-05T12:23:30.349Z,38.10
2018-06-05T12:24:30.356Z,36.30
2018-06-05T12:25:30.394Z,36.80
2018-06-05T12:26:30.363Z,36.80
2018-06-05T12:27:30.367Z,35.70
2018-06-05T12:28:30.365Z,32.90
2018-06-05T12:29:30.369Z,34.60
2018-06-05T12:30:30.372Z,35.90
2018-06-05T12:31:30.376Z,36.90
2018-06-05T12:32:30.383Z,36.00
2018-06-05T12:33:30.388Z,36.20
2018-06-05T12:34:30.387Z,37.00
2018-06-05T12:35:30.390Z,36.00
2018-06-05T12:36:30.397Z,34.60
2018-06-05T12:37:30.402Z,35.00
2018-06-05T12:38:30.408Z,33.50
2018-06-05T12:39:30.411Z,32.90
2018-06-05T12:40:30.455Z,32.50
2018-06-05T12:41:30.413Z,32.20
2018-06-05T12:42:30.418Z,32.10
2018-06-05T12:43:30.422Z,33.10
2018-06-05T12:44:30.436Z,33.50
2018-06-05T12:45:30.435Z,33.20
2018-06-05T12:46:30.439Z,32.10
2018-06-05T12:47:30.443Z,32.20
2018-06-05T12:48:30.442Z,34.00
2018-06-05T12:49:30.447Z,33.10
2018-06-05T12:50:30.456Z,33.60
2018-06-05T12:51:30.460Z,33.40
2018-06-05T12:52:30.459Z,32.30